Terminal Aerodrome Forecast
Issued by NWS

Home | Current Version | Previous Version | Graphics & Text | Print | Product List | Glossary On
Versions: 1 2 3 4 5 6 7 8 9 10 11 12 13 14 15 16 17 18 19
000
FTUS43 KMPX 272337
TAFRWF
TAF
KRWF 272337Z 2800/2824 16013KT P6SM FEW035
     FM280700 15014KT P6SM VCTS BKN035CB
     FM281000 15015KT P6SM VCSH OVC035
      TEMPO 2810/2813 5SM TSRA OVC020CB
     FM281300 16017G27KT P6SM VCSH SCT015 BKN030
     FM282000 25016G25KT P6SM BKN035=

USA.gov is the U.S. government's official web portal to all federal, state and local government web resources and services.